HVN855 FSIA-LFMN
Flight info
| Callsign | HVN855 |
|---|---|
| Flight time | N/A |
| Altitude | 42000 |
| Route | PAOLO1C PAOLO DCT PRA UM651 ESTOK/N0503F360 UM651 KUSUB UG651 ALKOS G651 MURAL/N0507F350 UM651 HARGA/N0503F360 UR775 MANDA R775 SB UV790 FEREB N720 PSD P751 AST/N0492F380 P751 TAKRI N710 KIVIL L613 MMA P751 METRU UL81 LORNO DCT KOGEB DCT VARAL DCT ELVIN DCT DOBIM R16 KERIT |
| Aircraft | B78X/H-SDE1E2E3FGHIJ2J3J4J5M1RWXY/LB1D1 |
Departure
| Time | 2026-04-30 22:04 |
|---|---|
| Airport | Seychelles International Airport (FSIA) |
Arrival
| Time | N/A |
|---|---|
| Airport | Nice-Côte d'Azur Airport (LFMN) |
| Time | Latitude | Longitude | Altitude | Speed | Heading |
|---|---|---|---|---|---|
| 2026-04-30 21:52 | -4.67048 | 55.51267 | 23 ft | 0 kts | 215° |
| 2026-04-30 21:54 | -4.67049 | 55.51267 | 23 ft | 0 kts | 215° |
| 2026-04-30 21:55 | -4.67049 | 55.51266 | 23 ft | 0 kts | 215° |
| 2026-04-30 21:59 | -4.67048 | 55.51267 | 23 ft | 1 kts | 215° |
| 2026-04-30 22:00 | -4.67022 | 55.51289 | 23 ft | 3 kts | 235° |
| 2026-04-30 22:00 | -4.67012 | 55.51328 | 23 ft | 3 kts | 276° |
| 2026-04-30 22:00 | -4.67017 | 55.51347 | 23 ft | 3 kts | 296° |
| 2026-04-30 22:01 | -4.67028 | 55.51365 | 23 ft | 3 kts | 305° |
| 2026-04-30 22:01 | -4.67040 | 55.51381 | 23 ft | 3 kts | 305° |
| 2026-04-30 22:01 | -4.67044 | 55.51388 | 23 ft | 0 kts | 305° |
| 2026-04-30 22:02 | -4.67043 | 55.51387 | 23 ft | 1 kts | 306° |
| 2026-04-30 22:02 | -4.66997 | 55.51322 | 23 ft | 20 kts | 305° |
| 2026-04-30 22:02 | -4.66893 | 55.51208 | 23 ft | 24 kts | 318° |
| 2026-04-30 22:02 | -4.66765 | 55.51091 | 23 ft | 25 kts | 317° |
| 2026-04-30 22:03 | -4.66686 | 55.51083 | 23 ft | 7 kts | 60° |
| 2026-04-30 22:03 | -4.66698 | 55.51134 | 23 ft | 10 kts | 123° |
| 2026-04-30 22:03 | -4.66837 | 55.51334 | 23 ft | 78 kts | 125° |
| 2026-04-30 22:03 | -4.67290 | 55.51980 | 23 ft | 143 kts | 125° |
| 2026-04-30 22:04 | -4.67947 | 55.52919 | 46 ft | 182 kts | 125° |
| 2026-04-30 22:04 | -4.68657 | 55.53954 | 706 ft | 176 kts | 125° |
| 2026-04-30 22:04 | -4.69527 | 55.56295 | 2213 ft | 201 kts | 81° |
| 2026-04-30 22:05 | -4.68705 | 55.57523 | 2441 ft | 232 kts | 41° |
| 2026-04-30 22:05 | -4.67354 | 55.58524 | 2883 ft | 249 kts | 38° |
| 2026-04-30 22:05 | -4.65926 | 55.59602 | 3440 ft | 263 kts | 37° |
| 2026-04-30 22:05 | -4.64183 | 55.60324 | 4156 ft | 282 kts | 9° |
| 2026-04-30 22:06 | -4.62255 | 55.60389 | 5347 ft | 282 kts | 360° |
| 2026-04-30 22:06 | -4.58281 | 55.60442 | 7533 ft | 289 kts | 1° |
| 2026-04-30 22:06 | -4.56256 | 55.60498 | 8543 ft | 293 kts | 2° |
| 2026-04-30 22:07 | -4.54199 | 55.60565 | 9501 ft | 297 kts | 2° |
| 2026-04-30 22:07 | -4.52117 | 55.60640 | 10387 ft | 303 kts | 2° |
| 2026-04-30 22:07 | -4.49962 | 55.60854 | 10923 ft | 320 kts | 14° |
| 2026-04-30 22:07 | -4.47873 | 55.61752 | 11419 ft | 334 kts | 28° |
| 2026-04-30 22:08 | -4.45770 | 55.62880 | 11907 ft | 350 kts | 29° |
| 2026-04-30 22:08 | -4.43564 | 55.64066 | 12322 ft | 367 kts | 29° |
| 2026-04-30 22:08 | -4.41255 | 55.65287 | 12678 ft | 384 kts | 28° |
| 2026-04-30 22:08 | -4.38828 | 55.66552 | 13015 ft | 402 kts | 28° |
| 2026-04-30 22:09 | -4.36311 | 55.67816 | 13449 ft | 416 kts | 25° |
| 2026-04-30 22:09 | -4.33512 | 55.68693 | 14016 ft | 428 kts | 11° |
| 2026-04-30 22:09 | -4.30517 | 55.68923 | 14738 ft | 436 kts | 358° |
| 2026-04-30 22:09 | -4.27492 | 55.68476 | 15549 ft | 442 kts | 345° |
| 2026-04-30 22:10 | -4.24594 | 55.67365 | 16372 ft | 447 kts | 333° |
| 2026-04-30 22:10 | -4.21991 | 55.65647 | 17177 ft | 451 kts | 320° |
| 2026-04-30 22:10 | -4.19802 | 55.63426 | 17961 ft | 455 kts | 310° |
| 2026-04-30 22:10 | -4.17771 | 55.60966 | 18709 ft | 461 kts | 310° |
| 2026-04-30 22:11 | -4.13275 | 55.56242 | 20113 ft | 474 kts | 316° |
| 2026-04-30 22:11 | -4.10821 | 55.54003 | 20778 ft | 481 kts | 319° |
| 2026-04-30 22:11 | -4.09148 | 55.52542 | 21224 ft | 485 kts | 320° |
| 2026-04-30 22:12 | -4.05708 | 55.49618 | 22127 ft | 492 kts | 321° |
| 2026-04-30 22:12 | -4.03065 | 55.47400 | 22801 ft | 497 kts | 321° |
| 2026-04-30 22:12 | -4.00401 | 55.45170 | 23456 ft | 502 kts | 321° |
| 2026-04-30 22:12 | -3.97700 | 55.42911 | 24100 ft | 507 kts | 322° |
| 2026-04-30 22:13 | -3.95896 | 55.41400 | 24521 ft | 510 kts | 322° |
| 2026-04-30 22:13 | -3.93165 | 55.39112 | 25152 ft | 515 kts | 322° |
| 2026-04-30 22:13 | -3.90397 | 55.36791 | 25764 ft | 519 kts | 322° |
| 2026-04-30 22:13 | -3.87622 | 55.34465 | 26355 ft | 523 kts | 322° |
| 2026-04-30 22:14 | -3.84809 | 55.32107 | 26944 ft | 528 kts | 322° |
| 2026-04-30 22:14 | -3.81989 | 55.29742 | 27527 ft | 532 kts | 322° |
| 2026-04-30 22:14 | -3.79147 | 55.27359 | 28108 ft | 536 kts | 322° |
| 2026-04-30 22:14 | -3.76276 | 55.24951 | 28685 ft | 540 kts | 322° |
| 2026-04-30 22:15 | -3.73367 | 55.22511 | 29253 ft | 543 kts | 323° |
| 2026-04-30 22:15 | -3.70501 | 55.20109 | 29841 ft | 546 kts | 323° |
| 2026-04-30 22:15 | -3.67581 | 55.17659 | 30506 ft | 546 kts | 323° |
| 2026-04-30 22:15 | -3.64676 | 55.15221 | 31191 ft | 545 kts | 323° |
| 2026-04-30 22:16 | -3.61770 | 55.12784 | 31883 ft | 543 kts | 323° |
| 2026-04-30 22:16 | -3.58878 | 55.10359 | 32509 ft | 542 kts | 323° |
| 2026-04-30 22:17 | -3.50188 | 55.03078 | 34151 ft | 542 kts | 323° |
| 2026-04-30 22:17 | -3.47335 | 55.00688 | 34666 ft | 541 kts | 323° |
| 2026-04-30 22:17 | -3.41556 | 54.95844 | 35660 ft | 541 kts | 322° |
| 2026-04-30 22:18 | -3.38669 | 54.93424 | 36134 ft | 540 kts | 322° |
| 2026-04-30 22:18 | -3.32900 | 54.88590 | 37051 ft | 539 kts | 322° |
| 2026-04-30 22:19 | -3.27196 | 54.83811 | 37911 ft | 537 kts | 322° |
| 2026-04-30 22:19 | -3.24330 | 54.81410 | 38318 ft | 537 kts | 322° |
| 2026-04-30 22:19 | -3.18612 | 54.76620 | 39119 ft | 535 kts | 322° |
| 2026-04-30 22:20 | -3.15754 | 54.74227 | 39504 ft | 534 kts | 321° |
| 2026-04-30 22:20 | -3.10063 | 54.69461 | 40239 ft | 532 kts | 321° |
| 2026-04-30 22:20 | -3.07233 | 54.67091 | 40590 ft | 531 kts | 321° |
| 2026-04-30 22:21 | -3.04427 | 54.64742 | 40926 ft | 530 kts | 321° |
| 2026-04-30 22:21 | -3.01605 | 54.62379 | 41256 ft | 529 kts | 321° |
| 2026-04-30 22:21 | -2.98777 | 54.60011 | 41568 ft | 528 kts | 321° |
| 2026-04-30 22:21 | -2.95956 | 54.57650 | 41810 ft | 528 kts | 321° |
| 2026-04-30 22:22 | -2.93129 | 54.55283 | 41912 ft | 531 kts | 321° |
| 2026-04-30 22:22 | -2.90318 | 54.52932 | 41912 ft | 535 kts | 321° |
| 2026-04-30 22:22 | -2.84574 | 54.48127 | 41928 ft | 538 kts | 321° |
| 2026-04-30 22:23 | -2.78847 | 54.43335 | 41943 ft | 536 kts | 321° |
| 2026-04-30 22:23 | -2.73124 | 54.38548 | 41919 ft | 536 kts | 321° |
| 2026-04-30 22:24 | -2.67438 | 54.33792 | 41902 ft | 535 kts | 321° |
| 2026-04-30 22:24 | -2.61701 | 54.28994 | 41904 ft | 535 kts | 321° |
| 2026-04-30 22:25 | -2.55988 | 54.24216 | 41912 ft | 536 kts | 321° |
| 2026-04-30 22:25 | -2.50249 | 54.19418 | 41900 ft | 536 kts | 321° |
| 2026-04-30 22:26 | -2.41700 | 54.12272 | 41913 ft | 536 kts | 321° |
| 2026-04-30 22:27 | -2.35985 | 54.07495 | 41901 ft | 536 kts | 321° |
| 2026-04-30 22:27 | -2.27395 | 54.00316 | 41912 ft | 536 kts | 321° |
| 2026-04-30 22:28 | -2.18806 | 53.93139 | 41899 ft | 536 kts | 321° |
| 2026-04-30 22:29 | -2.07401 | 53.83611 | 41905 ft | 536 kts | 321° |
| 2026-04-30 22:31 | -1.87350 | 53.66864 | 41900 ft | 536 kts | 321° |
| 2026-04-30 22:32 | -1.73082 | 53.54949 | 41899 ft | 536 kts | 321° |
| 2026-04-30 22:33 | -1.58764 | 53.42977 | 41900 ft | 536 kts | 321° |
| 2026-04-30 22:35 | -1.44476 | 53.31033 | 41901 ft | 536 kts | 321° |
| 2026-04-30 22:36 | -1.30197 | 53.19098 | 41903 ft | 536 kts | 321° |
| 2026-04-30 22:37 | -1.18775 | 53.09552 | 41912 ft | 536 kts | 321° |
| 2026-04-30 22:38 | -1.07324 | 52.99984 | 41909 ft | 536 kts | 321° |
| 2026-04-30 22:39 | -0.98725 | 52.92799 | 41901 ft | 536 kts | 321° |
| 2026-04-30 22:40 | -0.81577 | 52.78473 | 41899 ft | 536 kts | 321° |
| 2026-04-30 22:41 | -0.67302 | 52.66548 | 41900 ft | 536 kts | 321° |
| 2026-04-30 22:43 | -0.50145 | 52.52217 | 41900 ft | 536 kts | 321° |
| 2026-04-30 22:44 | -0.38698 | 52.42656 | 41903 ft | 536 kts | 321° |
| 2026-04-30 22:45 | -0.21544 | 52.28329 | 41900 ft | 536 kts | 321° |
| 2026-04-30 22:47 | -0.04382 | 52.13996 | 41900 ft | 536 kts | 321° |
| 2026-04-30 22:48 | 0.07053 | 52.04446 | 41903 ft | 536 kts | 321° |
| 2026-04-30 22:49 | 0.24226 | 51.90103 | 41900 ft | 536 kts | 321° |
| 2026-04-30 22:51 | 0.41383 | 51.75773 | 41900 ft | 536 kts | 321° |
| 2026-04-30 22:52 | 0.49967 | 51.68604 | 41911 ft | 536 kts | 321° |
| 2026-04-30 22:53 | 0.61389 | 51.59063 | 41910 ft | 536 kts | 321° |
| 2026-04-30 22:53 | 0.69962 | 51.51902 | 41900 ft | 536 kts | 321° |
| 2026-04-30 22:55 | 0.84251 | 51.39965 | 41902 ft | 536 kts | 321° |
| 2026-04-30 22:56 | 0.94780 | 51.31169 | 41913 ft | 536 kts | 321° |
| 2026-04-30 22:57 | 1.09039 | 51.19257 | 41912 ft | 536 kts | 321° |
| 2026-04-30 22:58 | 1.20502 | 51.09678 | 41904 ft | 536 kts | 321° |
| 2026-04-30 22:59 | 1.37652 | 50.95346 | 41909 ft | 536 kts | 321° |